sensor_id;sensor_type;location;lat;lon;timestamp;P1;durP1;ratioP1;P2;durP2;ratioP2
21630;SDS011;10977;46.802;11.952;2022-12-18T00:00:46;6.10;;;4.15;;
21630;SDS011;10977;46.802;11.952;2022-12-18T00:03:15;4.43;;;3.58;;
21630;SDS011;10977;46.802;11.952;2022-12-18T00:05:50;3.90;;;3.35;;
21630;SDS011;10977;46.802;11.952;2022-12-18T00:08:17;4.72;;;3.20;;
21630;SDS011;10977;46.802;11.952;2022-12-18T00:10:44;4.10;;;3.13;;
21630;SDS011;10977;46.802;11.952;2022-12-18T00:13:10;4.18;;;3.25;;
21630;SDS011;10977;46.802;11.952;2022-12-18T00:15:37;5.70;;;3.20;;
21630;SDS011;10977;46.802;11.952;2022-12-18T00:18:04;5.20;;;3.13;;
21630;SDS011;10977;46.802;11.952;2022-12-18T00:20:29;8.13;;;2.80;;
21630;SDS011;10977;46.802;11.952;2022-12-18T00:22:55;4.25;;;3.42;;
21630;SDS011;10977;46.802;11.952;2022-12-18T00:25:20;3.95;;;2.83;;
21630;SDS011;10977;46.802;11.952;2022-12-18T00:27:46;4.20;;;3.00;;
21630;SDS011;10977;46.802;11.952;2022-12-18T00:30:11;4.63;;;3.13;;
21630;SDS011;10977;46.802;11.952;2022-12-18T00:32:37;6.75;;;3.60;;
21630;SDS011;10977;46.802;11.952;2022-12-18T00:35:03;5.15;;;3.80;;
21630;SDS011;10977;46.802;11.952;2022-12-18T00:37:29;5.05;;;3.28;;
21630;SDS011;10977;46.802;11.952;2022-12-18T00:39:54;7.03;;;3.83;;
21630;SDS011;10977;46.802;11.952;2022-12-18T00:42:20;4.22;;;3.05;;
21630;SDS011;10977;46.802;11.952;2022-12-18T00:45:04;3.60;;;2.97;;
21630;SDS011;10977;46.802;11.952;2022-12-18T00:47:29;3.92;;;2.75;;
21630;SDS011;10977;46.802;11.952;2022-12-18T00:49:55;4.25;;;3.08;;
21630;SDS011;10977;46.802;11.952;2022-12-18T00:52:20;5.80;;;3.22;;
21630;SDS011;10977;46.802;11.952;2022-12-18T00:54:45;12.50;;;7.82;;
21630;SDS011;10977;46.802;11.952;2022-12-18T00:57:10;10.85;;;5.90;;
21630;SDS011;10977;46.802;11.952;2022-12-18T00:59:36;5.82;;;4.05;;
21630;SDS011;10977;46.802;11.952;2022-12-18T01:02:01;6.13;;;4.10;;
21630;SDS011;10977;46.802;11.952;2022-12-18T01:04:26;6.35;;;3.33;;
21630;SDS011;10977;46.802;11.952;2022-12-18T01:06:52;6.38;;;2.95;;
21630;SDS011;10977;46.802;11.952;2022-12-18T01:09:17;3.95;;;3.25;;
21630;SDS011;10977;46.802;11.952;2022-12-18T01:11:43;3.30;;;2.80;;
21630;SDS011;10977;46.802;11.952;2022-12-18T01:14:08;4.28;;;3.13;;
21630;SDS011;10977;46.802;11.952;2022-12-18T01:16:33;5.72;;;2.70;;
21630;SDS011;10977;46.802;11.952;2022-12-18T01:18:59;4.82;;;3.45;;
21630;SDS011;10977;46.802;11.952;2022-12-18T01:21:24;4.60;;;2.83;;
21630;SDS011;10977;46.802;11.952;2022-12-18T01:23:53;4.95;;;3.22;;
21630;SDS011;10977;46.802;11.952;2022-12-18T01:26:19;4.35;;;2.50;;
21630;SDS011;10977;46.802;11.952;2022-12-18T01:28:45;3.50;;;2.70;;
21630;SDS011;10977;46.802;11.952;2022-12-18T01:31:12;5.38;;;3.20;;
21630;SDS011;10977;46.802;11.952;2022-12-18T01:33:38;3.80;;;3.03;;
21630;SDS011;10977;46.802;11.952;2022-12-18T01:36:03;5.55;;;3.17;;
21630;SDS011;10977;46.802;11.952;2022-12-18T01:38:29;4.22;;;3.00;;
21630;SDS011;10977;46.802;11.952;2022-12-18T01:40:58;4.55;;;2.83;;
21630;SDS011;10977;46.802;11.952;2022-12-18T01:43:40;4.18;;;2.88;;
21630;SDS011;10977;46.802;11.952;2022-12-18T01:46:26;4.45;;;3.38;;
21630;SDS011;10977;46.802;11.952;2022-12-18T01:48:54;5.20;;;3.60;;
21630;SDS011;10977;46.802;11.952;2022-12-18T01:51:24;5.72;;;3.03;;
21630;SDS011;10977;46.802;11.952;2022-12-18T01:53:51;4.13;;;3.30;;
21630;SDS011;10977;46.802;11.952;2022-12-18T01:56:18;5.05;;;3.45;;
21630;SDS011;10977;46.802;11.952;2022-12-18T01:58:46;4.07;;;3.22;;
21630;SDS011;10977;46.802;11.952;2022-12-18T02:01:22;3.10;;;2.43;;
21630;SDS011;10977;46.802;11.952;2022-12-18T02:03:48;5.80;;;3.25;;
21630;SDS011;10977;46.802;11.952;2022-12-18T02:06:26;3.58;;;2.63;;
21630;SDS011;10977;46.802;11.952;2022-12-18T02:09:08;4.30;;;3.10;;
21630;SDS011;10977;46.802;11.952;2022-12-18T02:14:20;5.03;;;3.28;;
21630;SDS011;10977;46.802;11.952;2022-12-18T02:22:18;11.90;;;7.28;;
21630;SDS011;10977;46.802;11.952;2022-12-18T02:24:54;6.70;;;4.53;;
21630;SDS011;10977;46.802;11.952;2022-12-18T02:27:28;5.32;;;3.55;;
21630;SDS011;10977;46.802;11.952;2022-12-18T02:29:57;5.53;;;3.30;;
21630;SDS011;10977;46.802;11.952;2022-12-18T02:32:35;5.50;;;2.92;;
21630;SDS011;10977;46.802;11.952;2022-12-18T02:35:05;3.95;;;2.88;;
21630;SDS011;10977;46.802;11.952;2022-12-18T02:37:32;4.07;;;3.08;;
21630;SDS011;10977;46.802;11.952;2022-12-18T02:40:00;4.88;;;3.10;;
21630;SDS011;10977;46.802;11.952;2022-12-18T02:42:28;6.10;;;3.37;;
21630;SDS011;10977;46.802;11.952;2022-12-18T02:44:55;5.07;;;3.45;;
21630;SDS011;10977;46.802;11.952;2022-12-18T02:47:22;5.77;;;3.60;;
21630;SDS011;10977;46.802;11.952;2022-12-18T02:57:42;6.13;;;3.37;;
21630;SDS011;10977;46.802;11.952;2022-12-18T03:00:22;5.43;;;3.40;;
21630;SDS011;10977;46.802;11.952;2022-12-18T03:02:55;6.10;;;3.43;;
21630;SDS011;10977;46.802;11.952;2022-12-18T03:05:37;5.07;;;3.30;;
21630;SDS011;10977;46.802;11.952;2022-12-18T03:08:13;3.73;;;2.80;;
21630;SDS011;10977;46.802;11.952;2022-12-18T03:10:45;5.47;;;2.97;;
21630;SDS011;10977;46.802;11.952;2022-12-18T03:13:20;3.20;;;2.90;;
21630;SDS011;10977;46.802;11.952;2022-12-18T03:15:55;4.00;;;3.20;;
21630;SDS011;10977;46.802;11.952;2022-12-18T03:18:24;3.30;;;2.73;;
21630;SDS011;10977;46.802;11.952;2022-12-18T03:20:53;5.03;;;2.80;;
21630;SDS011;10977;46.802;11.952;2022-12-18T03:23:24;4.40;;;2.83;;
21630;SDS011;10977;46.802;11.952;2022-12-18T03:25:55;3.83;;;2.70;;
21630;SDS011;10977;46.802;11.952;2022-12-18T03:28:24;3.27;;;2.97;;
21630;SDS011;10977;46.802;11.952;2022-12-18T03:30:56;4.57;;;3.50;;
21630;SDS011;10977;46.802;11.952;2022-12-18T03:33:28;3.47;;;2.80;;
21630;SDS011;10977;46.802;11.952;2022-12-18T03:36:00;3.97;;;3.00;;
21630;SDS011;10977;46.802;11.952;2022-12-18T03:38:26;3.90;;;2.93;;
21630;SDS011;10977;46.802;11.952;2022-12-18T03:47:16;4.07;;;2.73;;
21630;SDS011;10977;46.802;11.952;2022-12-18T03:52:37;5.87;;;3.17;;
21630;SDS011;10977;46.802;11.952;2022-12-18T03:55:08;5.43;;;3.47;;
21630;SDS011;10977;46.802;11.952;2022-12-18T03:57:35;4.13;;;3.10;;
21630;SDS011;10977;46.802;11.952;2022-12-18T04:00:04;3.53;;;2.73;;
21630;SDS011;10977;46.802;11.952;2022-12-18T04:02:34;3.87;;;3.13;;
21630;SDS011;10977;46.802;11.952;2022-12-18T04:05:03;5.77;;;3.13;;
21630;SDS011;10977;46.802;11.952;2022-12-18T04:07:31;5.63;;;3.00;;
21630;SDS011;10977;46.802;11.952;2022-12-18T04:09:57;4.97;;;3.37;;
21630;SDS011;10977;46.802;11.952;2022-12-18T04:12:26;4.87;;;2.97;;
21630;SDS011;10977;46.802;11.952;2022-12-18T04:14:53;4.87;;;3.27;;
21630;SDS011;10977;46.802;11.952;2022-12-18T04:17:19;5.27;;;2.97;;
21630;SDS011;10977;46.802;11.952;2022-12-18T04:19:45;4.43;;;3.07;;
21630;SDS011;10977;46.802;11.952;2022-12-18T04:22:10;11.33;;;7.20;;
21630;SDS011;10977;46.802;11.952;2022-12-18T04:24:36;11.37;;;6.17;;
21630;SDS011;10977;46.802;11.952;2022-12-18T04:27:01;4.73;;;3.13;;
21630;SDS011;10977;46.802;11.952;2022-12-18T04:29:27;4.53;;;2.90;;
21630;SDS011;10977;46.802;11.952;2022-12-18T04:31:53;4.57;;;3.13;;
21630;SDS011;10977;46.802;11.952;2022-12-18T04:34:19;3.53;;;3.17;;
21630;SDS011;10977;46.802;11.952;2022-12-18T04:36:44;5.50;;;2.90;;
21630;SDS011;10977;46.802;11.952;2022-12-18T04:39:10;4.10;;;2.80;;
21630;SDS011;10977;46.802;11.952;2022-12-18T04:41:35;5.27;;;3.37;;
21630;SDS011;10977;46.802;11.952;2022-12-18T04:44:01;4.43;;;3.17;;
21630;SDS011;10977;46.802;11.952;2022-12-18T04:46:26;3.77;;;2.90;;
21630;SDS011;10977;46.802;11.952;2022-12-18T04:48:52;4.37;;;3.10;;
21630;SDS011;10977;46.802;11.952;2022-12-18T04:51:17;3.63;;;2.87;;
21630;SDS011;10977;46.802;11.952;2022-12-18T04:53:42;6.23;;;3.30;;
21630;SDS011;10977;46.802;11.952;2022-12-18T04:56:11;4.27;;;3.00;;
21630;SDS011;10977;46.802;11.952;2022-12-18T04:58:39;3.83;;;2.93;;
21630;SDS011;10977;46.802;11.952;2022-12-18T05:01:06;3.63;;;3.03;;
21630;SDS011;10977;46.802;11.952;2022-12-18T05:03:32;3.40;;;2.67;;
21630;SDS011;10977;46.802;11.952;2022-12-18T05:05:58;3.47;;;3.17;;
21630;SDS011;10977;46.802;11.952;2022-12-18T05:08:23;3.67;;;3.20;;
21630;SDS011;10977;46.802;11.952;2022-12-18T05:10:49;4.30;;;3.33;;
21630;SDS011;10977;46.802;11.952;2022-12-18T05:13:14;6.47;;;3.40;;
21630;SDS011;10977;46.802;11.952;2022-12-18T05:15:40;3.97;;;3.20;;
21630;SDS011;10977;46.802;11.952;2022-12-18T05:18:06;7.30;;;3.27;;
21630;SDS011;10977;46.802;11.952;2022-12-18T05:20:32;3.60;;;3.20;;
21630;SDS011;10977;46.802;11.952;2022-12-18T05:22:57;6.53;;;3.10;;
21630;SDS011;10977;46.802;11.952;2022-12-18T05:25:23;4.33;;;3.50;;
21630;SDS011;10977;46.802;11.952;2022-12-18T05:27:48;16.07;;;9.10;;
21630;SDS011;10977;46.802;11.952;2022-12-18T05:30:14;8.63;;;5.90;;
21630;SDS011;10977;46.802;11.952;2022-12-18T05:32:40;6.77;;;3.83;;
21630;SDS011;10977;46.802;11.952;2022-12-18T05:35:07;4.17;;;3.40;;
21630;SDS011;10977;46.802;11.952;2022-12-18T05:37:34;9.13;;;4.53;;
21630;SDS011;10977;46.802;11.952;2022-12-18T05:40:00;7.80;;;3.57;;
21630;SDS011;10977;46.802;11.952;2022-12-18T05:42:25;4.80;;;3.60;;
21630;SDS011;10977;46.802;11.952;2022-12-18T05:44:51;5.07;;;4.10;;
21630;SDS011;10977;46.802;11.952;2022-12-18T05:47:16;5.70;;;3.20;;
21630;SDS011;10977;46.802;11.952;2022-12-18T05:49:41;5.57;;;3.87;;
21630;SDS011;10977;46.802;11.952;2022-12-18T05:52:07;4.97;;;3.87;;
21630;SDS011;10977;46.802;11.952;2022-12-18T05:54:32;23.27;;;12.93;;
21630;SDS011;10977;46.802;11.952;2022-12-18T05:56:57;10.30;;;6.63;;
21630;SDS011;10977;46.802;11.952;2022-12-18T05:59:23;9.67;;;6.10;;
21630;SDS011;10977;46.802;11.952;2022-12-18T06:01:49;7.40;;;5.43;;
21630;SDS011;10977;46.802;11.952;2022-12-18T06:04:14;7.27;;;4.73;;
21630;SDS011;10977;46.802;11.952;2022-12-18T06:06:39;14.00;;;9.07;;
21630;SDS011;10977;46.802;11.952;2022-12-18T06:09:05;12.93;;;8.40;;
21630;SDS011;10977;46.802;11.952;2022-12-18T06:11:33;12.33;;;8.13;;
21630;SDS011;10977;46.802;11.952;2022-12-18T06:14:00;10.90;;;9.47;;
21630;SDS011;10977;46.802;11.952;2022-12-18T06:16:26;10.33;;;9.23;;
21630;SDS011;10977;46.802;11.952;2022-12-18T06:18:53;18.17;;;16.07;;
21630;SDS011;10977;46.802;11.952;2022-12-18T06:21:18;10.00;;;8.57;;
21630;SDS011;10977;46.802;11.952;2022-12-18T06:23:44;6.97;;;5.70;;
21630;SDS011;10977;46.802;11.952;2022-12-18T06:26:10;5.70;;;4.50;;
21630;SDS011;10977;46.802;11.952;2022-12-18T06:28:37;5.40;;;4.37;;
21630;SDS011;10977;46.802;11.952;2022-12-18T06:31:05;34.83;;;24.47;;
21630;SDS011;10977;46.802;11.952;2022-12-18T06:33:31;26.00;;;16.97;;
21630;SDS011;10977;46.802;11.952;2022-12-18T06:36:01;23.90;;;14.93;;
21630;SDS011;10977;46.802;11.952;2022-12-18T06:38:28;10.30;;;8.13;;
21630;SDS011;10977;46.802;11.952;2022-12-18T06:40:54;10.83;;;6.93;;
21630;SDS011;10977;46.802;11.952;2022-12-18T06:43:19;10.23;;;6.93;;
21630;SDS011;10977;46.802;11.952;2022-12-18T06:45:45;8.77;;;6.40;;
21630;SDS011;10977;46.802;11.952;2022-12-18T06:48:11;14.63;;;9.53;;
21630;SDS011;10977;46.802;11.952;2022-12-18T06:50:36;15.93;;;9.47;;
21630;SDS011;10977;46.802;11.952;2022-12-18T06:53:01;8.93;;;5.87;;
21630;SDS011;10977;46.802;11.952;2022-12-18T06:55:27;8.03;;;6.90;;
21630;SDS011;10977;46.802;11.952;2022-12-18T06:57:52;13.67;;;8.47;;
21630;SDS011;10977;46.802;11.952;2022-12-18T07:00:17;11.53;;;8.27;;
21630;SDS011;10977;46.802;11.952;2022-12-18T07:02:43;11.90;;;9.03;;
21630;SDS011;10977;46.802;11.952;2022-12-18T07:05:08;10.30;;;7.43;;
21630;SDS011;10977;46.802;11.952;2022-12-18T07:07:34;10.83;;;7.77;;
21630;SDS011;10977;46.802;11.952;2022-12-18T07:09:59;14.47;;;7.00;;
21630;SDS011;10977;46.802;11.952;2022-12-18T07:12:26;10.20;;;7.67;;
21630;SDS011;10977;46.802;11.952;2022-12-18T07:14:52;8.67;;;6.70;;
21630;SDS011;10977;46.802;11.952;2022-12-18T07:17:17;10.07;;;6.57;;
21630;SDS011;10977;46.802;11.952;2022-12-18T07:19:42;12.53;;;8.10;;
21630;SDS011;10977;46.802;11.952;2022-12-18T07:22:08;9.30;;;6.67;;
21630;SDS011;10977;46.802;11.952;2022-12-18T07:24:33;9.67;;;6.50;;
21630;SDS011;10977;46.802;11.952;2022-12-18T07:26:59;7.93;;;5.97;;
21630;SDS011;10977;46.802;11.952;2022-12-18T07:29:24;9.03;;;6.73;;
21630;SDS011;10977;46.802;11.952;2022-12-18T07:31:50;76.90;;;29.20;;
21630;SDS011;10977;46.802;11.952;2022-12-18T07:34:15;90.70;;;37.63;;
21630;SDS011;10977;46.802;11.952;2022-12-18T07:36:42;65.33;;;32.73;;
21630;SDS011;10977;46.802;11.952;2022-12-18T07:39:07;78.93;;;44.83;;
21630;SDS011;10977;46.802;11.952;2022-12-18T07:41:33;47.80;;;29.73;;
21630;SDS011;10977;46.802;11.952;2022-12-18T07:43:58;26.33;;;15.20;;
21630;SDS011;10977;46.802;11.952;2022-12-18T07:46:24;22.80;;;16.57;;
21630;SDS011;10977;46.802;11.952;2022-12-18T07:48:49;35.90;;;25.47;;
21630;SDS011;10977;46.802;11.952;2022-12-18T07:51:15;39.83;;;29.40;;
21630;SDS011;10977;46.802;11.952;2022-12-18T07:53:40;29.50;;;22.60;;
21630;SDS011;10977;46.802;11.952;2022-12-18T07:56:07;20.50;;;15.43;;
21630;SDS011;10977;46.802;11.952;2022-12-18T07:58:35;14.40;;;9.63;;
21630;SDS011;10977;46.802;11.952;2022-12-18T08:01:02;14.80;;;8.60;;
21630;SDS011;10977;46.802;11.952;2022-12-18T08:03:31;12.73;;;8.87;;
21630;SDS011;10977;46.802;11.952;2022-12-18T08:06:00;13.57;;;8.73;;
21630;SDS011;10977;46.802;11.952;2022-12-18T08:08:28;23.07;;;14.43;;
21630;SDS011;10977;46.802;11.952;2022-12-18T08:10:54;30.83;;;19.93;;
21630;SDS011;10977;46.802;11.952;2022-12-18T08:13:19;16.53;;;12.10;;
21630;SDS011;10977;46.802;11.952;2022-12-18T08:15:44;20.53;;;14.37;;
21630;SDS011;10977;46.802;11.952;2022-12-18T08:18:10;18.60;;;12.37;;
21630;SDS011;10977;46.802;11.952;2022-12-18T08:20:35;15.13;;;10.87;;
21630;SDS011;10977;46.802;11.952;2022-12-18T08:23:00;15.80;;;10.93;;
21630;SDS011;10977;46.802;11.952;2022-12-18T08:25:26;16.43;;;11.60;;
21630;SDS011;10977;46.802;11.952;2022-12-18T08:27:51;15.70;;;11.07;;
21630;SDS011;10977;46.802;11.952;2022-12-18T08:30:16;14.97;;;9.70;;
21630;SDS011;10977;46.802;11.952;2022-12-18T08:32:42;14.10;;;9.97;;
21630;SDS011;10977;46.802;11.952;2022-12-18T08:35:07;14.30;;;10.30;;
21630;SDS011;10977;46.802;11.952;2022-12-18T08:37:33;18.27;;;10.50;;
21630;SDS011;10977;46.802;11.952;2022-12-18T08:39:59;13.63;;;8.97;;
21630;SDS011;10977;46.802;11.952;2022-12-18T08:42:24;17.17;;;8.67;;
21630;SDS011;10977;46.802;11.952;2022-12-18T08:45:08;12.37;;;7.67;;
21630;SDS011;10977;46.802;11.952;2022-12-18T08:47:34;12.77;;;8.73;;
21630;SDS011;10977;46.802;11.952;2022-12-18T08:49:59;14.13;;;8.80;;
21630;SDS011;10977;46.802;11.952;2022-12-18T08:52:25;10.80;;;7.57;;
21630;SDS011;10977;46.802;11.952;2022-12-18T08:54:50;8.00;;;6.53;;
21630;SDS011;10977;46.802;11.952;2022-12-18T08:57:15;12.80;;;6.93;;
21630;SDS011;10977;46.802;11.952;2022-12-18T08:59:41;7.37;;;5.97;;
21630;SDS011;10977;46.802;11.952;2022-12-18T09:02:08;12.43;;;6.60;;
21630;SDS011;10977;46.802;11.952;2022-12-18T09:04:35;9.05;;;6.78;;
21630;SDS011;10977;46.802;11.952;2022-12-18T09:07:00;8.85;;;6.65;;
21630;SDS011;10977;46.802;11.952;2022-12-18T09:09:26;9.07;;;6.78;;
21630;SDS011;10977;46.802;11.952;2022-12-18T09:11:51;10.80;;;5.97;;
21630;SDS011;10977;46.802;11.952;2022-12-18T09:14:16;7.18;;;5.68;;
21630;SDS011;10977;46.802;11.952;2022-12-18T09:16:42;7.63;;;6.30;;
21630;SDS011;10977;46.802;11.952;2022-12-18T09:19:08;6.47;;;5.63;;
21630;SDS011;10977;46.802;11.952;2022-12-18T09:21:37;12.23;;;6.95;;
21630;SDS011;10977;46.802;11.952;2022-12-18T09:24:04;8.23;;;5.65;;
21630;SDS011;10977;46.802;11.952;2022-12-18T09:26:30;6.93;;;5.68;;
21630;SDS011;10977;46.802;11.952;2022-12-18T09:28:55;6.85;;;5.00;;
21630;SDS011;10977;46.802;11.952;2022-12-18T09:31:21;6.75;;;4.72;;
21630;SDS011;10977;46.802;11.952;2022-12-18T09:33:48;5.57;;;4.40;;
21630;SDS011;10977;46.802;11.952;2022-12-18T09:36:15;5.60;;;4.22;;
21630;SDS011;10977;46.802;11.952;2022-12-18T09:38:41;6.07;;;4.55;;
21630;SDS011;10977;46.802;11.952;2022-12-18T09:43:52;6.60;;;4.70;;
21630;SDS011;10977;46.802;11.952;2022-12-18T09:46:26;5.18;;;4.07;;
21630;SDS011;10977;46.802;11.952;2022-12-18T09:48:56;4.80;;;4.28;;
21630;SDS011;10977;46.802;11.952;2022-12-18T09:53:55;6.47;;;4.60;;
21630;SDS011;10977;46.802;11.952;2022-12-18T09:56:28;5.00;;;4.38;;
21630;SDS011;10977;46.802;11.952;2022-12-18T09:58:59;4.25;;;3.85;;
21630;SDS011;10977;46.802;11.952;2022-12-18T10:01:27;6.00;;;4.18;;
21630;SDS011;10977;46.802;11.952;2022-12-18T10:03:53;5.20;;;4.10;;
21630;SDS011;10977;46.802;11.952;2022-12-18T10:06:24;4.93;;;3.97;;
21630;SDS011;10977;46.802;11.952;2022-12-18T10:19:59;3.90;;;3.50;;
21630;SDS011;10977;46.802;11.952;2022-12-18T10:25:40;4.00;;;3.60;;
21630;SDS011;10977;46.802;11.952;2022-12-18T10:28:12;4.90;;;3.90;;
21630;SDS011;10977;46.802;11.952;2022-12-18T10:30:39;4.55;;;4.13;;
21630;SDS011;10977;46.802;11.952;2022-12-18T10:33:08;4.53;;;4.13;;
21630;SDS011;10977;46.802;11.952;2022-12-18T10:35:41;5.88;;;5.20;;
21630;SDS011;10977;46.802;11.952;2022-12-18T10:48:33;6.50;;;4.10;;
21630;SDS011;10977;46.802;11.952;2022-12-18T10:51:01;4.10;;;3.70;;
21630;SDS011;10977;46.802;11.952;2022-12-18T10:53:29;4.90;;;4.50;;
21630;SDS011;10977;46.802;11.952;2022-12-18T10:55:57;5.00;;;4.03;;
21630;SDS011;10977;46.802;11.952;2022-12-18T11:03:44;5.68;;;3.70;;
21630;SDS011;10977;46.802;11.952;2022-12-18T11:06:12;3.83;;;3.30;;
21630;SDS011;10977;46.802;11.952;2022-12-18T11:08:40;4.22;;;3.67;;
21630;SDS011;10977;46.802;11.952;2022-12-18T11:11:09;4.35;;;3.95;;
21630;SDS011;10977;46.802;11.952;2022-12-18T11:13:49;5.85;;;3.83;;
21630;SDS011;10977;46.802;11.952;2022-12-18T11:16:23;4.22;;;3.90;;
21630;SDS011;10977;46.802;11.952;2022-12-18T11:18:49;4.78;;;3.42;;
21630;SDS011;10977;46.802;11.952;2022-12-18T11:21:14;3.63;;;3.33;;
21630;SDS011;10977;46.802;11.952;2022-12-18T11:23:58;4.65;;;3.20;;
21630;SDS011;10977;46.802;11.952;2022-12-18T11:26:32;3.65;;;3.35;;
21630;SDS011;10977;46.802;11.952;2022-12-18T11:29:09;4.75;;;3.28;;
21630;SDS011;10977;46.802;11.952;2022-12-18T11:31:40;4.18;;;3.40;;
21630;SDS011;10977;46.802;11.952;2022-12-18T11:36:52;4.35;;;3.95;;
21630;SDS011;10977;46.802;11.952;2022-12-18T11:39:24;3.72;;;3.33;;
21630;SDS011;10977;46.802;11.952;2022-12-18T11:53:02;3.97;;;3.58;;
21630;SDS011;10977;46.802;11.952;2022-12-18T12:03:39;4.25;;;3.78;;
21630;SDS011;10977;46.802;11.952;2022-12-18T12:11:43;5.55;;;4.55;;
21630;SDS011;10977;46.802;11.952;2022-12-18T12:22:47;5.00;;;4.20;;
21630;SDS011;10977;46.802;11.952;2022-12-18T12:25:32;4.45;;;4.05;;
21630;SDS011;10977;46.802;11.952;2022-12-18T12:36:45;4.43;;;4.05;;
21630;SDS011;10977;46.802;11.952;2022-12-18T12:39:12;5.80;;;5.20;;
21630;SDS011;10977;46.802;11.952;2022-12-18T12:41:42;5.25;;;4.72;;
21630;SDS011;10977;46.802;11.952;2022-12-18T12:44:34;6.75;;;5.30;;
21630;SDS011;10977;46.802;11.952;2022-12-18T12:47:13;7.10;;;6.25;;
21630;SDS011;10977;46.802;11.952;2022-12-18T12:49:43;5.93;;;5.28;;
21630;SDS011;10977;46.802;11.952;2022-12-18T12:52:15;9.90;;;6.28;;
21630;SDS011;10977;46.802;11.952;2022-12-18T12:54:53;8.07;;;5.93;;
21630;SDS011;10977;46.802;11.952;2022-12-18T13:00:13;10.63;;;6.50;;
21630;SDS011;10977;46.802;11.952;2022-12-18T13:02:47;7.25;;;6.47;;
21630;SDS011;10977;46.802;11.952;2022-12-18T13:08:11;7.93;;;6.65;;
21630;SDS011;10977;46.802;11.952;2022-12-18T13:10:47;6.72;;;6.03;;
21630;SDS011;10977;46.802;11.952;2022-12-18T13:13:13;5.80;;;5.20;;
21630;SDS011;10977;46.802;11.952;2022-12-18T13:15:48;7.38;;;5.22;;
21630;SDS011;10977;46.802;11.952;2022-12-18T13:18:27;8.68;;;5.13;;
21630;SDS011;10977;46.802;11.952;2022-12-18T13:25:44;4.28;;;3.85;;
21630;SDS011;10977;46.802;11.952;2022-12-18T13:28:10;6.28;;;4.40;;
21630;SDS011;10977;46.802;11.952;2022-12-18T13:35:39;6.65;;;5.03;;
21630;SDS011;10977;46.802;11.952;2022-12-18T13:38:19;8.88;;;5.38;;
21630;SDS011;10977;46.802;11.952;2022-12-18T13:41:00;5.30;;;4.80;;
21630;SDS011;10977;46.802;11.952;2022-12-18T13:43:30;5.22;;;4.72;;
21630;SDS011;10977;46.802;11.952;2022-12-18T13:46:03;7.85;;;5.72;;
21630;SDS011;10977;46.802;11.952;2022-12-18T13:48:30;6.22;;;5.60;;
21630;SDS011;10977;46.802;11.952;2022-12-18T13:51:05;5.40;;;4.90;;
21630;SDS011;10977;46.802;11.952;2022-12-18T13:53:36;6.72;;;4.97;;
21630;SDS011;10977;46.802;11.952;2022-12-18T13:56:07;5.13;;;4.63;;
21630;SDS011;10977;46.802;11.952;2022-12-18T13:58:32;5.30;;;4.80;;
21630;SDS011;10977;46.802;11.952;2022-12-18T14:00:58;6.55;;;5.15;;
21630;SDS011;10977;46.802;11.952;2022-12-18T14:03:25;7.00;;;5.18;;
21630;SDS011;10977;46.802;11.952;2022-12-18T14:05:56;10.18;;;5.60;;
21630;SDS011;10977;46.802;11.952;2022-12-18T14:08:26;7.78;;;5.20;;
21630;SDS011;10977;46.802;11.952;2022-12-18T14:10:57;7.25;;;5.32;;
21630;SDS011;10977;46.802;11.952;2022-12-18T14:13:30;6.72;;;5.47;;
21630;SDS011;10977;46.802;11.952;2022-12-18T14:16:00;7.03;;;5.75;;
21630;SDS011;10977;46.802;11.952;2022-12-18T14:18:42;8.10;;;6.00;;
21630;SDS011;10977;46.802;11.952;2022-12-18T14:21:18;10.18;;;6.97;;
21630;SDS011;10977;46.802;11.952;2022-12-18T14:23:46;7.95;;;4.90;;
21630;SDS011;10977;46.802;11.952;2022-12-18T14:26:25;5.78;;;5.03;;
21630;SDS011;10977;46.802;11.952;2022-12-18T14:28:55;8.65;;;5.18;;
21630;SDS011;10977;46.802;11.952;2022-12-18T14:31:23;6.57;;;5.03;;
21630;SDS011;10977;46.802;11.952;2022-12-18T14:33:50;8.15;;;6.78;;
21630;SDS011;10977;46.802;11.952;2022-12-18T14:36:26;9.98;;;6.13;;
21630;SDS011;10977;46.802;11.952;2022-12-18T14:38:57;9.57;;;6.55;;
21630;SDS011;10977;46.802;11.952;2022-12-18T14:41:23;8.82;;;6.82;;
21630;SDS011;10977;46.802;11.952;2022-12-18T14:43:51;12.68;;;11.38;;
21630;SDS011;10977;46.802;11.952;2022-12-18T14:46:34;13.52;;;11.50;;
21630;SDS011;10977;46.802;11.952;2022-12-18T14:49:14;8.25;;;7.38;;
21630;SDS011;10977;46.802;11.952;2022-12-18T14:51:49;16.95;;;6.20;;
21630;SDS011;10977;46.802;11.952;2022-12-18T14:54:18;9.77;;;6.75;;
21630;SDS011;10977;46.802;11.952;2022-12-18T14:56:49;9.52;;;6.00;;
21630;SDS011;10977;46.802;11.952;2022-12-18T14:59:23;7.55;;;6.28;;
21630;SDS011;10977;46.802;11.952;2022-12-18T15:02:04;11.75;;;10.13;;
21630;SDS011;10977;46.802;11.952;2022-12-18T15:04:36;11.15;;;9.35;;
21630;SDS011;10977;46.802;11.952;2022-12-18T15:07:20;11.90;;;7.97;;
21630;SDS011;10977;46.802;11.952;2022-12-18T15:12:46;8.70;;;6.53;;
21630;SDS011;10977;46.802;11.952;2022-12-18T15:17:58;19.70;;;10.55;;
21630;SDS011;10977;46.802;11.952;2022-12-18T15:20:27;9.38;;;7.90;;
21630;SDS011;10977;46.802;11.952;2022-12-18T15:22:55;9.30;;;6.90;;
21630;SDS011;10977;46.802;11.952;2022-12-18T15:25:25;8.20;;;7.03;;
21630;SDS011;10977;46.802;11.952;2022-12-18T15:27:57;17.13;;;7.80;;
21630;SDS011;10977;46.802;11.952;2022-12-18T15:30:23;9.65;;;7.70;;
21630;SDS011;10977;46.802;11.952;2022-12-18T15:32:50;8.57;;;7.05;;
21630;SDS011;10977;46.802;11.952;2022-12-18T15:35:18;10.82;;;7.47;;
21630;SDS011;10977;46.802;11.952;2022-12-18T15:37:47;16.58;;;12.77;;
21630;SDS011;10977;46.802;11.952;2022-12-18T15:40:23;17.38;;;11.30;;
21630;SDS011;10977;46.802;11.952;2022-12-18T15:42:51;11.27;;;8.63;;
21630;SDS011;10977;46.802;11.952;2022-12-18T15:45:37;13.48;;;10.40;;
21630;SDS011;10977;46.802;11.952;2022-12-18T15:48:04;18.17;;;14.73;;
21630;SDS011;10977;46.802;11.952;2022-12-18T15:50:53;16.55;;;11.73;;
21630;SDS011;10977;46.802;11.952;2022-12-18T15:53:22;10.88;;;8.15;;
21630;SDS011;10977;46.802;11.952;2022-12-18T15:55:48;10.40;;;8.10;;
21630;SDS011;10977;46.802;11.952;2022-12-18T15:58:32;10.38;;;7.57;;
21630;SDS011;10977;46.802;11.952;2022-12-18T16:00:58;8.88;;;7.25;;
21630;SDS011;10977;46.802;11.952;2022-12-18T16:03:24;11.65;;;8.90;;
21630;SDS011;10977;46.802;11.952;2022-12-18T16:05:49;14.93;;;10.30;;
21630;SDS011;10977;46.802;11.952;2022-12-18T16:08:15;13.65;;;8.95;;
21630;SDS011;10977;46.802;11.952;2022-12-18T16:10:40;25.33;;;16.02;;
21630;SDS011;10977;46.802;11.952;2022-12-18T16:13:06;36.72;;;20.02;;
21630;SDS011;10977;46.802;11.952;2022-12-18T16:15:34;24.45;;;13.10;;
21630;SDS011;10977;46.802;11.952;2022-12-18T16:18:00;20.08;;;12.45;;
21630;SDS011;10977;46.802;11.952;2022-12-18T16:20:25;23.60;;;13.02;;
21630;SDS011;10977;46.802;11.952;2022-12-18T16:22:50;25.95;;;15.30;;
21630;SDS011;10977;46.802;11.952;2022-12-18T16:25:20;36.92;;;17.67;;
21630;SDS011;10977;46.802;11.952;2022-12-18T16:27:48;32.30;;;16.40;;
21630;SDS011;10977;46.802;11.952;2022-12-18T16:30:19;29.48;;;15.98;;
21630;SDS011;10977;46.802;11.952;2022-12-18T16:32:46;27.02;;;15.07;;
21630;SDS011;10977;46.802;11.952;2022-12-18T16:35:12;25.80;;;15.18;;
21630;SDS011;10977;46.802;11.952;2022-12-18T16:37:40;22.17;;;13.70;;
21630;SDS011;10977;46.802;11.952;2022-12-18T16:40:10;23.05;;;14.48;;
21630;SDS011;10977;46.802;11.952;2022-12-18T16:42:39;25.38;;;16.00;;